createdAt,value
2022-07-25T00:00:50.733Z,9.65
2022-07-25T00:03:21.085Z,7.93
2022-07-25T00:05:50.872Z,9.83
2022-07-25T00:08:20.637Z,8.00
2022-07-25T00:10:50.487Z,9.73
2022-07-25T00:13:20.252Z,8.17
2022-07-25T00:15:50.134Z,10.27
2022-07-25T00:18:19.897Z,12.03
2022-07-25T00:20:49.839Z,10.23
2022-07-25T00:23:19.607Z,8.87
2022-07-25T00:25:49.694Z,9.18
2022-07-25T00:28:19.476Z,11.23
2022-07-25T00:30:49.926Z,10.73
2022-07-25T00:33:19.727Z,10.40
2022-07-25T00:35:49.495Z,15.13
2022-07-25T00:38:19.281Z,10.67
2022-07-25T00:40:54.589Z,11.93
2022-07-25T00:43:20.591Z,9.60
2022-07-25T00:45:50.371Z,12.90
2022-07-25T00:48:20.052Z,11.45
2022-07-25T00:50:50.145Z,11.95
2022-07-25T00:53:20.080Z,12.63
2022-07-25T00:55:49.988Z,11.43
2022-07-25T00:58:19.773Z,12.27
2022-07-25T01:00:49.818Z,11.20
2022-07-25T01:03:19.775Z,13.77
2022-07-25T01:05:53.717Z,14.57
2022-07-25T01:08:23.063Z,14.17
2022-07-25T01:10:52.908Z,14.67
2022-07-25T01:13:22.753Z,12.20
2022-07-25T01:15:52.640Z,13.87
2022-07-25T01:18:22.480Z,14.13
2022-07-25T01:20:52.270Z,13.47
2022-07-25T01:23:22.063Z,15.30
2022-07-25T01:25:51.566Z,14.85
2022-07-25T01:28:21.477Z,17.40
2022-07-25T01:30:51.636Z,13.80
2022-07-25T01:33:22.801Z,12.85
2022-07-25T01:35:52.822Z,15.87
2022-07-25T01:38:22.602Z,18.90
2022-07-25T01:40:52.661Z,16.83
2022-07-25T01:43:22.138Z,16.95
2022-07-25T01:45:52.034Z,13.73
2022-07-25T01:48:21.572Z,14.15
2022-07-25T01:50:51.379Z,16.17
2022-07-25T01:53:22.122Z,16.10
2022-07-25T01:55:53.365Z,17.57
2022-07-25T01:58:24.268Z,18.20
2022-07-25T02:00:55.190Z,16.63
2022-07-25T02:03:31.035Z,16.33
2022-07-25T02:06:03.728Z,16.82
2022-07-25T02:10:54.383Z,15.95
2022-07-25T02:13:25.046Z,14.33
2022-07-25T02:15:55.004Z,17.00
2022-07-25T02:18:24.777Z,16.42
2022-07-25T02:20:54.657Z,14.57
2022-07-25T02:23:24.731Z,16.80
2022-07-25T02:25:54.959Z,17.37
2022-07-25T02:28:24.812Z,15.48
2022-07-25T02:30:54.433Z,16.30
2022-07-25T02:33:24.490Z,17.47
2022-07-25T02:35:54.275Z,19.43
2022-07-25T02:38:24.056Z,17.97
2022-07-25T02:40:54.170Z,16.80
2022-07-25T02:43:23.735Z,16.30
2022-07-25T02:45:53.646Z,14.77
2022-07-25T02:48:23.425Z,15.47
2022-07-25T02:50:53.291Z,15.30
2022-07-25T02:53:40.354Z,17.53
2022-07-25T02:55:55.072Z,19.57
2022-07-25T02:58:26.522Z,16.90
2022-07-25T03:00:56.379Z,15.87
2022-07-25T03:03:26.170Z,16.60
2022-07-25T03:05:56.634Z,19.67
2022-07-25T03:08:26.987Z,18.65
2022-07-25T03:10:57.073Z,16.00
2022-07-25T03:13:26.856Z,18.33
2022-07-25T03:15:56.949Z,16.02
2022-07-25T03:18:26.828Z,19.87
2022-07-25T03:20:56.595Z,16.23
2022-07-25T03:23:28.127Z,18.80
2022-07-25T03:25:58.133Z,16.70
2022-07-25T03:28:27.927Z,16.75
2022-07-25T03:30:58.053Z,18.93
2022-07-25T03:33:28.140Z,22.80
2022-07-25T03:35:57.927Z,19.53
2022-07-25T03:38:27.413Z,20.07
2022-07-25T03:40:57.191Z,24.03
2022-07-25T03:43:26.983Z,18.97
2022-07-25T03:45:56.938Z,16.80
2022-07-25T03:48:26.591Z,20.10
2022-07-25T03:50:58.876Z,18.60
2022-07-25T03:53:29.420Z,18.30
2022-07-25T03:55:59.277Z,17.27
2022-07-25T03:58:29.052Z,18.48
2022-07-25T04:00:58.872Z,15.30
2022-07-25T04:03:28.450Z,14.70
2022-07-25T04:05:58.241Z,19.40
2022-07-25T04:08:28.032Z,18.35
2022-07-25T04:10:59.525Z,19.03
2022-07-25T04:13:29.771Z,15.03
2022-07-25T04:15:59.566Z,18.53
2022-07-25T04:18:29.527Z,16.32
2022-07-25T04:21:01.438Z,15.23
2022-07-25T04:23:31.698Z,16.27
2022-07-25T04:26:01.942Z,16.53
2022-07-25T04:28:32.502Z,16.23
2022-07-25T04:31:02.281Z,15.93
2022-07-25T04:33:32.368Z,16.12
2022-07-25T04:36:02.149Z,15.97
2022-07-25T04:38:32.083Z,16.15
2022-07-25T04:41:04.494Z,16.40
2022-07-25T04:43:34.290Z,18.77
2022-07-25T04:46:06.624Z,14.25
2022-07-25T04:48:36.635Z,14.13
2022-07-25T04:51:07.540Z,17.30
2022-07-25T04:53:37.428Z,18.37
2022-07-25T04:56:08.489Z,14.07
2022-07-25T04:58:38.533Z,18.50
2022-07-25T05:01:08.424Z,13.80
2022-07-25T05:03:38.186Z,14.07
2022-07-25T05:06:08.359Z,13.30
2022-07-25T05:08:38.138Z,15.37
2022-07-25T05:11:07.997Z,17.63
2022-07-25T05:13:37.776Z,13.07
2022-07-25T05:16:09.452Z,14.76
2022-07-25T05:18:38.988Z,18.30
2022-07-25T05:21:14.454Z,16.27
2022-07-25T05:23:44.237Z,14.77
2022-07-25T05:26:14.805Z,16.68
2022-07-25T05:28:44.619Z,12.17
2022-07-25T05:31:14.590Z,15.10
2022-07-25T05:33:44.653Z,12.50
2022-07-25T05:36:14.850Z,11.52
2022-07-25T05:38:44.630Z,16.50
2022-07-25T05:41:14.423Z,13.30
2022-07-25T05:43:46.085Z,17.83
2022-07-25T05:46:16.602Z,13.75
2022-07-25T05:48:47.354Z,12.88
2022-07-25T05:51:17.167Z,10.23
2022-07-25T05:53:47.228Z,10.90
2022-07-25T05:56:16.714Z,10.66
2022-07-25T05:58:46.554Z,9.20
2022-07-25T06:01:18.229Z,11.83
2022-07-25T06:03:48.014Z,13.37
2022-07-25T06:06:17.554Z,11.30
2022-07-25T06:08:47.329Z,10.60
2022-07-25T06:11:17.571Z,14.07
2022-07-25T06:13:47.720Z,12.43
2022-07-25T06:16:17.655Z,11.00
2022-07-25T06:18:47.505Z,15.07
2022-07-25T06:21:17.836Z,10.60
2022-07-25T06:23:47.615Z,11.27
2022-07-25T06:26:18.211Z,9.32
2022-07-25T06:28:47.979Z,12.27
2022-07-25T06:31:17.894Z,11.60
2022-07-25T06:33:47.754Z,11.17
2022-07-25T06:36:17.532Z,9.34
2022-07-25T06:38:47.312Z,10.40
2022-07-25T06:41:17.150Z,12.60
2022-07-25T06:43:47.223Z,13.75
2022-07-25T06:46:16.746Z,11.34
2022-07-25T06:48:46.864Z,11.43
2022-07-25T06:51:16.765Z,10.03
2022-07-25T06:53:46.535Z,10.77
2022-07-25T06:56:17.824Z,10.12
2022-07-25T06:58:47.773Z,12.43
2022-07-25T07:01:17.734Z,13.17
2022-07-25T07:03:48.492Z,11.07
2022-07-25T07:06:18.370Z,11.10
2022-07-25T07:08:48.139Z,8.10
2022-07-25T07:11:17.906Z,10.57
2022-07-25T07:13:47.673Z,11.37
2022-07-25T07:16:17.676Z,10.08
2022-07-25T07:18:49.542Z,9.30
2022-07-25T07:21:21.507Z,9.67
2022-07-25T07:23:53.497Z,11.10
2022-07-25T07:26:22.228Z,8.73
2022-07-25T07:28:53.797Z,9.47
2022-07-25T07:31:23.620Z,9.87
2022-07-25T07:33:53.423Z,10.17
2022-07-25T07:36:23.667Z,7.80
2022-07-25T07:38:53.442Z,7.10
2022-07-25T07:41:23.237Z,7.33
2022-07-25T07:43:53.316Z,55.25
2022-07-25T07:46:23.116Z,21.50
2022-07-25T07:48:53.313Z,38.75
2022-07-25T07:51:23.076Z,20.20
2022-07-25T07:54:10.527Z,28.30
2022-07-25T07:56:40.293Z,7.63
2022-07-25T07:59:10.725Z,5.60
2022-07-25T08:01:40.754Z,5.70
2022-07-25T08:04:11.663Z,6.08
2022-07-25T08:06:42.850Z,5.00
2022-07-25T08:09:12.636Z,4.87
2022-07-25T08:11:42.401Z,3.70
2022-07-25T08:14:12.342Z,3.13
2022-07-25T08:16:42.240Z,4.37
2022-07-25T08:19:11.827Z,1.95
2022-07-25T08:21:41.595Z,4.57
2022-07-25T08:24:11.481Z,5.65
2022-07-25T08:26:41.262Z,3.27
2022-07-25T08:29:19.223Z,5.78
2022-07-25T08:31:42.834Z,5.90
2022-07-25T08:34:12.495Z,2.80
2022-07-25T08:36:42.435Z,2.53
2022-07-25T08:39:11.911Z,3.60
2022-07-25T08:41:43.110Z,3.90
2022-07-25T08:44:15.050Z,2.58
2022-07-25T08:46:46.163Z,3.53
2022-07-25T08:49:16.056Z,6.00
2022-07-25T08:51:46.672Z,3.70
2022-07-25T08:54:19.269Z,4.83
2022-07-25T08:56:48.744Z,2.30
2022-07-25T08:59:18.284Z,2.35
2022-07-25T09:01:48.188Z,1.50
2022-07-25T09:04:18.441Z,4.25
2022-07-25T09:06:52.750Z,3.97
2022-07-25T09:09:33.279Z,3.43
2022-07-25T09:12:03.669Z,2.50
2022-07-25T09:14:44.425Z,4.60
2022-07-25T09:17:22.395Z,5.73
2022-07-25T09:19:54.390Z,3.90
2022-07-25T09:22:24.027Z,5.67
2022-07-25T09:24:53.807Z,2.70
2022-07-25T09:27:23.599Z,2.97
2022-07-25T09:29:53.174Z,7.05
2022-07-25T09:32:25.274Z,1.53
2022-07-25T09:34:55.050Z,7.07
2022-07-25T09:37:27.380Z,2.70
2022-07-25T09:39:57.443Z,1.37
2022-07-25T09:42:29.426Z,1.50
2022-07-25T09:45:07.533Z,2.95
2022-07-25T09:47:39.022Z,4.90
2022-07-25T09:50:09.159Z,8.07
2022-07-25T09:52:39.202Z,3.87
2022-07-25T09:55:10.864Z,3.17
2022-07-25T09:57:41.184Z,4.07
2022-07-25T10:00:13.096Z,4.70
2022-07-25T10:02:57.291Z,5.33
2022-07-25T10:05:41.166Z,4.83
2022-07-25T10:08:11.559Z,6.03
2022-07-25T10:10:43.276Z,3.70
2022-07-25T10:13:18.022Z,3.50
2022-07-25T10:15:50.835Z,5.47
2022-07-25T10:18:22.943Z,3.35
2022-07-25T10:20:56.096Z,3.40
2022-07-25T10:23:28.687Z,4.63
2022-07-25T10:26:07.162Z,2.13
2022-07-25T10:28:44.883Z,4.53
2022-07-25T10:31:29.483Z,3.40
2022-07-25T10:34:07.870Z,2.77
2022-07-25T10:36:54.168Z,2.73
2022-07-25T10:39:23.980Z,3.47
2022-07-25T10:42:02.783Z,2.67
2022-07-25T10:44:43.734Z,5.87
2022-07-25T10:47:15.443Z,3.43
2022-07-25T10:52:21.251Z,3.73
2022-07-25T10:54:56.418Z,3.40
2022-07-25T10:57:31.311Z,2.77
2022-07-25T11:00:06.409Z,2.03
2022-07-25T11:02:36.713Z,5.13
2022-07-25T11:05:08.436Z,4.20
2022-07-25T11:07:37.932Z,7.30
2022-07-25T11:10:10.438Z,6.40
2022-07-25T11:12:40.248Z,4.90
2022-07-25T11:15:13.360Z,3.63
2022-07-25T11:17:44.889Z,4.37
2022-07-25T11:20:19.541Z,4.00
2022-07-25T11:22:54.163Z,3.90
2022-07-25T11:25:24.392Z,2.25
2022-07-25T11:27:58.863Z,5.57
2022-07-25T11:30:29.576Z,3.67
2022-07-25T11:33:04.217Z,4.63
2022-07-25T11:35:34.673Z,8.67
2022-07-25T11:38:06.341Z,5.68
2022-07-25T11:40:39.285Z,7.47
2022-07-25T11:43:09.061Z,5.33
2022-07-25T11:45:39.896Z,5.27
2022-07-25T11:48:13.320Z,5.60
2022-07-25T11:50:45.534Z,8.20
2022-07-25T11:53:18.445Z,8.07
2022-07-25T11:55:48.218Z,6.23
2022-07-25T11:58:19.433Z,8.30
2022-07-25T12:00:50.534Z,5.30
2022-07-25T12:03:23.726Z,6.87
2022-07-25T12:05:53.644Z,5.70
2022-07-25T12:08:23.809Z,8.53
2022-07-25T12:10:55.556Z,11.55
2022-07-25T12:13:31.116Z,6.75
2022-07-25T12:16:01.262Z,5.70
2022-07-25T12:18:31.025Z,8.63
2022-07-25T12:21:00.793Z,7.70
2022-07-25T12:23:30.564Z,9.87
2022-07-25T12:26:00.407Z,6.43
2022-07-25T12:28:30.650Z,5.57
2022-07-25T12:31:00.535Z,5.50
2022-07-25T12:33:30.174Z,4.20
2022-07-25T12:36:06.578Z,5.53
2022-07-25T12:38:32.911Z,6.73
2022-07-25T12:41:02.693Z,8.47
2022-07-25T12:43:32.461Z,6.97
2022-07-25T12:46:02.401Z,6.87
2022-07-25T12:48:32.305Z,11.43
2022-07-25T12:51:02.219Z,10.37
2022-07-25T12:53:31.996Z,8.73
2022-07-25T12:56:01.780Z,10.77
2022-07-25T12:58:31.571Z,8.87
2022-07-25T13:01:02.278Z,8.50
2022-07-25T13:03:32.956Z,11.03
2022-07-25T13:06:02.725Z,8.97
2022-07-25T13:08:32.624Z,11.67
2022-07-25T13:11:02.401Z,12.07
2022-07-25T13:13:32.181Z,8.00
2022-07-25T13:16:02.262Z,7.12
2022-07-25T13:18:32.543Z,7.80
2022-07-25T13:21:03.485Z,12.70
2022-07-25T13:23:33.331Z,8.57
2022-07-25T13:26:03.343Z,12.13
2022-07-25T13:28:33.261Z,8.57
2022-07-25T13:31:04.728Z,8.43
2022-07-25T13:33:35.354Z,11.77
2022-07-25T13:36:07.029Z,4.63
2022-07-25T13:38:38.678Z,9.23
2022-07-25T13:41:10.055Z,5.97
2022-07-25T13:43:41.916Z,7.60
2022-07-25T13:46:12.420Z,7.17
2022-07-25T13:48:42.382Z,6.37
2022-07-25T13:51:12.210Z,9.17
2022-07-25T13:53:42.139Z,11.63
2022-07-25T13:56:14.687Z,7.97
2022-07-25T13:58:44.426Z,7.60
2022-07-25T14:01:16.014Z,8.60
2022-07-25T14:03:45.696Z,7.25
2022-07-25T14:06:15.524Z,11.43
2022-07-25T14:08:45.366Z,8.50
2022-07-25T14:11:15.211Z,9.40
2022-07-25T14:13:45.428Z,9.67
2022-07-25T14:16:16.594Z,5.77
2022-07-25T14:18:46.673Z,6.17
2022-07-25T14:21:16.447Z,6.63
2022-07-25T14:23:46.217Z,10.27
2022-07-25T14:26:15.989Z,5.03
2022-07-25T14:28:45.838Z,7.40
2022-07-25T14:31:15.807Z,6.07
2022-07-25T14:33:45.314Z,8.45
2022-07-25T14:36:15.084Z,9.20
2022-07-25T14:38:46.635Z,9.57
2022-07-25T14:41:16.791Z,9.73
2022-07-25T14:43:46.862Z,11.15
2022-07-25T14:46:16.932Z,5.55
2022-07-25T14:48:47.446Z,5.90
2022-07-25T14:51:17.738Z,8.87
2022-07-25T14:53:52.780Z,15.63
2022-07-25T14:56:19.387Z,18.83
2022-07-25T14:58:49.186Z,7.20
2022-07-25T15:01:20.815Z,7.47
2022-07-25T15:03:51.066Z,6.30
2022-07-25T15:06:24.564Z,7.50
2022-07-25T15:08:52.476Z,7.27
2022-07-25T15:11:23.281Z,4.37
2022-07-25T15:13:53.126Z,10.37
2022-07-25T15:16:23.378Z,10.17
2022-07-25T15:19:15.062Z,9.47
2022-07-25T15:21:25.063Z,10.20
2022-07-25T15:23:56.530Z,7.40
2022-07-25T15:26:26.756Z,6.17
2022-07-25T15:28:56.339Z,11.75
2022-07-25T15:31:26.517Z,11.43
2022-07-25T15:33:56.398Z,7.27
2022-07-25T15:36:29.560Z,8.27
2022-07-25T15:38:57.706Z,7.27
2022-07-25T15:41:27.472Z,5.87
2022-07-25T15:43:57.237Z,6.57
2022-07-25T15:46:28.862Z,7.55
2022-07-25T15:48:58.930Z,7.83
2022-07-25T15:51:28.691Z,4.23
2022-07-25T15:53:58.460Z,6.97
2022-07-25T15:56:28.021Z,9.85
2022-07-25T15:58:57.816Z,5.57
2022-07-25T16:01:27.760Z,6.17
2022-07-25T16:04:00.113Z,5.45
2022-07-25T16:06:30.843Z,6.40
2022-07-25T16:09:00.983Z,5.53
2022-07-25T16:11:30.461Z,5.20
2022-07-25T16:14:00.235Z,7.80
2022-07-25T16:16:29.825Z,10.75
2022-07-25T16:18:59.594Z,8.10
2022-07-25T16:21:29.441Z,10.23
2022-07-25T16:23:59.211Z,8.10
2022-07-25T16:26:29.059Z,7.35
2022-07-25T16:29:00.115Z,14.67
2022-07-25T16:31:29.827Z,8.30
2022-07-25T16:33:59.695Z,7.47
2022-07-25T16:36:29.548Z,6.90
2022-07-25T16:38:59.688Z,8.28
2022-07-25T16:41:29.481Z,8.13
2022-07-25T16:44:00.287Z,7.17
2022-07-25T16:46:30.209Z,6.37
2022-07-25T16:49:00.283Z,8.13
2022-07-25T16:51:34.119Z,6.53
2022-07-25T16:54:02.082Z,6.47
2022-07-25T16:56:32.108Z,6.57
2022-07-25T16:59:01.878Z,7.17
2022-07-25T17:01:32.362Z,6.40
2022-07-25T17:04:02.455Z,6.43
2022-07-25T17:06:32.581Z,6.70
2022-07-25T17:09:02.649Z,8.93
2022-07-25T17:11:34.355Z,7.80
2022-07-25T17:14:06.402Z,7.33
2022-07-25T17:16:36.191Z,3.70
2022-07-25T17:19:06.301Z,6.37
2022-07-25T17:21:36.240Z,8.40
2022-07-25T17:24:08.443Z,6.37
2022-07-25T17:26:38.347Z,10.17
2022-07-25T17:29:09.433Z,18.67
2022-07-25T17:31:39.500Z,7.80
2022-07-25T17:34:10.089Z,6.75
2022-07-25T17:36:40.548Z,5.33
2022-07-25T17:39:10.996Z,5.28
2022-07-25T17:41:41.000Z,9.63
2022-07-25T17:44:12.319Z,5.05
2022-07-25T17:46:42.513Z,8.90
2022-07-25T17:49:12.689Z,10.53
2022-07-25T17:51:42.549Z,10.90
2022-07-25T17:54:12.276Z,5.33
2022-07-25T17:56:42.477Z,6.53
2022-07-25T17:59:12.424Z,7.77
2022-07-25T18:01:42.242Z,11.33
2022-07-25T18:04:12.056Z,5.93
2022-07-25T18:06:41.872Z,9.33
2022-07-25T18:09:11.720Z,7.13
2022-07-25T18:11:41.194Z,6.12
2022-07-25T18:14:11.610Z,7.97
2022-07-25T18:16:41.352Z,8.65
2022-07-25T18:19:11.200Z,7.80
2022-07-25T18:21:41.025Z,10.00
2022-07-25T18:24:11.878Z,8.95
2022-07-25T18:26:42.465Z,3.50
2022-07-25T18:29:12.257Z,5.37
2022-07-25T18:31:42.129Z,10.07
2022-07-25T18:34:12.052Z,7.60
2022-07-25T18:36:42.848Z,6.33
2022-07-25T18:39:12.621Z,9.97
2022-07-25T18:41:42.566Z,8.27
2022-07-25T18:44:12.250Z,7.33
2022-07-25T18:46:45.897Z,8.37
2022-07-25T18:49:15.826Z,13.93
2022-07-25T18:51:46.095Z,12.00
2022-07-25T18:54:15.940Z,7.80
2022-07-25T18:56:45.791Z,12.87
2022-07-25T18:59:17.408Z,9.77
2022-07-25T19:01:47.245Z,17.27
2022-07-25T19:04:17.444Z,4.63
2022-07-25T19:06:47.367Z,11.53
2022-07-25T19:09:17.931Z,14.73
2022-07-25T19:11:48.173Z,10.15
2022-07-25T19:14:17.954Z,5.75
2022-07-25T19:16:47.774Z,6.90
2022-07-25T19:19:17.649Z,8.10
2022-07-25T19:21:47.434Z,9.07
2022-07-25T19:24:17.140Z,6.17
2022-07-25T19:26:48.073Z,9.30
2022-07-25T19:29:18.556Z,9.77
2022-07-25T19:31:48.357Z,10.73
2022-07-25T19:34:18.125Z,7.08
2022-07-25T19:36:47.903Z,7.97
2022-07-25T19:39:17.667Z,9.57
2022-07-25T19:41:47.525Z,10.67
2022-07-25T19:44:17.631Z,8.10
2022-07-25T19:46:49.457Z,18.67
2022-07-25T19:49:19.303Z,10.60
2022-07-25T19:51:49.152Z,9.80
2022-07-25T19:54:19.024Z,6.37
2022-07-25T19:56:48.804Z,9.43
2022-07-25T19:59:18.586Z,5.67
2022-07-25T20:01:50.195Z,8.75
2022-07-25T20:04:19.969Z,8.50
2022-07-25T20:06:52.137Z,7.00
2022-07-25T20:09:22.453Z,12.47
2022-07-25T20:11:52.424Z,12.30
2022-07-25T20:14:21.895Z,7.40
2022-07-25T20:16:51.844Z,5.47
2022-07-25T20:19:21.755Z,6.43
2022-07-25T20:21:52.110Z,8.48
2022-07-25T20:24:22.065Z,9.73
2022-07-25T20:26:51.892Z,7.47
2022-07-25T20:29:21.906Z,8.17
2022-07-25T20:31:53.390Z,11.67
2022-07-25T20:34:23.650Z,9.27
2022-07-25T20:36:53.791Z,10.80
2022-07-25T20:39:23.626Z,5.30
2022-07-25T20:41:53.561Z,9.03
2022-07-25T20:44:23.109Z,9.63
2022-07-25T20:46:52.880Z,6.87
2022-07-25T20:49:22.749Z,4.83
2022-07-25T20:51:54.843Z,8.17
2022-07-25T20:54:24.831Z,8.90
2022-07-25T20:56:54.685Z,15.43
2022-07-25T20:59:24.451Z,8.23
2022-07-25T21:01:54.286Z,6.53
2022-07-25T21:04:24.484Z,12.53
2022-07-25T21:06:56.780Z,11.47
2022-07-25T21:09:30.940Z,7.83
2022-07-25T21:11:58.352Z,10.77
2022-07-25T21:14:29.047Z,9.87
2022-07-25T21:16:58.883Z,11.87
2022-07-25T21:19:28.684Z,10.30
2022-07-25T21:21:58.460Z,7.93
2022-07-25T21:24:28.120Z,10.60
2022-07-25T21:26:57.857Z,10.13
2022-07-25T21:29:27.940Z,8.23
2022-07-25T21:31:57.894Z,10.37
2022-07-25T21:34:27.692Z,8.95
2022-07-25T21:36:57.474Z,9.37
2022-07-25T21:39:27.720Z,9.23
2022-07-25T21:41:57.631Z,7.03
2022-07-25T21:44:27.659Z,8.15
2022-07-25T21:46:57.511Z,6.83
2022-07-25T21:49:45.188Z,10.10
2022-07-25T21:52:15.538Z,9.60
2022-07-25T21:54:46.249Z,9.20
2022-07-25T21:57:16.355Z,5.63
2022-07-25T21:59:46.763Z,6.73
2022-07-25T22:02:16.356Z,9.30
2022-07-25T22:04:46.262Z,7.50
2022-07-25T22:07:16.119Z,10.03
2022-07-25T22:09:46.137Z,7.27
2022-07-25T22:12:16.262Z,3.02
2022-07-25T22:14:46.038Z,8.27
2022-07-25T22:17:15.877Z,7.50
2022-07-25T22:19:45.925Z,3.37
2022-07-25T22:22:16.015Z,4.35
2022-07-25T22:24:46.704Z,6.67
2022-07-25T22:27:16.792Z,5.50
2022-07-25T22:29:46.642Z,9.00
2022-07-25T22:32:16.476Z,4.63
2022-07-25T22:34:46.251Z,12.97
2022-07-25T22:37:16.934Z,4.10
2022-07-25T22:39:46.687Z,9.83
2022-07-25T22:42:16.423Z,6.33
2022-07-25T22:44:46.240Z,3.63
2022-07-25T22:47:16.238Z,6.60
2022-07-25T22:49:46.004Z,5.27
2022-07-25T22:52:15.558Z,6.15
2022-07-25T22:54:45.623Z,6.22
2022-07-25T22:57:15.421Z,7.23
2022-07-25T22:59:46.832Z,3.47
2022-07-25T23:02:16.541Z,7.43
2022-07-25T23:04:46.414Z,5.25
2022-07-25T23:07:16.238Z,6.80
2022-07-25T23:09:46.013Z,5.17
2022-07-25T23:12:15.567Z,5.95
2022-07-25T23:14:45.611Z,4.78
2022-07-25T23:17:18.324Z,5.85
2022-07-25T23:19:53.138Z,10.77
2022-07-25T23:22:25.369Z,4.57
2022-07-25T23:24:56.076Z,7.83
2022-07-25T23:27:26.784Z,5.93
2022-07-25T23:29:56.565Z,5.50
2022-07-25T23:32:26.320Z,4.40
2022-07-25T23:34:56.124Z,6.00
2022-07-25T23:37:25.971Z,5.37
2022-07-25T23:39:56.111Z,7.50
2022-07-25T23:42:25.655Z,8.67
2022-07-25T23:44:55.152Z,8.05
2022-07-25T23:47:36.906Z,10.37
2022-07-25T23:49:56.782Z,10.80
2022-07-25T23:52:26.448Z,6.55
2022-07-25T23:54:56.247Z,7.90
2022-07-25T23:57:26.085Z,9.53
2022-07-25T23:59:55.861Z,10.63
